sensor_id;sensor_type;location;lat;lon;timestamp;pressure;altitude;pressure_sealevel;temperature;humidity
42001;BME280;27689;48.390;10.856;2022-12-18T00:01:03;97220.16;;;-5.28;100.00
42001;BME280;27689;48.390;10.856;2022-12-18T00:03:50;97225.13;;;-5.19;100.00
42001;BME280;27689;48.390;10.856;2022-12-18T00:06:35;97227.56;;;-5.13;100.00
42001;BME280;27689;48.390;10.856;2022-12-18T00:09:20;97220.66;;;-5.07;100.00
42001;BME280;27689;48.390;10.856;2022-12-18T00:12:04;97224.06;;;-5.06;100.00
42001;BME280;27689;48.390;10.856;2022-12-18T00:14:48;97229.03;;;-4.99;100.00
42001;BME280;27689;48.390;10.856;2022-12-18T00:17:32;97226.47;;;-4.99;100.00
42001;BME280;27689;48.390;10.856;2022-12-18T00:20:16;97228.94;;;-4.92;100.00
42001;BME280;27689;48.390;10.856;2022-12-18T00:23:06;97222.22;;;-5.00;100.00
42001;BME280;27689;48.390;10.856;2022-12-18T00:25:50;97231.53;;;-4.95;100.00
42001;BME280;27689;48.390;10.856;2022-12-18T00:28:34;97234.91;;;-4.93;100.00
42001;BME280;27689;48.390;10.856;2022-12-18T00:31:21;97245.00;;;-4.87;100.00
42001;BME280;27689;48.390;10.856;2022-12-18T00:34:05;97240.75;;;-4.87;100.00
42001;BME280;27689;48.390;10.856;2022-12-18T00:36:49;97248.56;;;-4.94;100.00
42001;BME280;27689;48.390;10.856;2022-12-18T00:39:33;97253.72;;;-4.98;100.00
42001;BME280;27689;48.390;10.856;2022-12-18T00:42:17;97248.63;;;-5.01;100.00
42001;BME280;27689;48.390;10.856;2022-12-18T00:45:21;97249.63;;;-5.09;100.00
42001;BME280;27689;48.390;10.856;2022-12-18T00:48:05;97247.91;;;-5.07;100.00
42001;BME280;27689;48.390;10.856;2022-12-18T00:50:49;97251.41;;;-5.13;100.00
42001;BME280;27689;48.390;10.856;2022-12-18T00:53:34;97263.16;;;-5.04;100.00
42001;BME280;27689;48.390;10.856;2022-12-18T00:56:18;97256.28;;;-4.99;100.00
42001;BME280;27689;48.390;10.856;2022-12-18T00:59:05;97261.50;;;-5.05;100.00
42001;BME280;27689;48.390;10.856;2022-12-18T01:01:49;97269.22;;;-5.08;100.00
42001;BME280;27689;48.390;10.856;2022-12-18T01:04:33;97261.44;;;-5.02;100.00
42001;BME280;27689;48.390;10.856;2022-12-18T01:07:17;97252.84;;;-4.97;100.00
42001;BME280;27689;48.390;10.856;2022-12-18T01:10:01;97255.31;;;-4.92;100.00
42001;BME280;27689;48.390;10.856;2022-12-18T01:12:45;97277.34;;;-4.86;100.00
42001;BME280;27689;48.390;10.856;2022-12-18T01:15:29;97274.09;;;-4.93;100.00
42001;BME280;27689;48.390;10.856;2022-12-18T01:18:13;97263.75;;;-4.87;100.00
42001;BME280;27689;48.390;10.856;2022-12-18T01:20:57;97263.00;;;-4.93;100.00
42001;BME280;27689;48.390;10.856;2022-12-18T01:23:44;97262.06;;;-4.88;100.00
42001;BME280;27689;48.390;10.856;2022-12-18T01:26:28;97265.47;;;-4.89;100.00
42001;BME280;27689;48.390;10.856;2022-12-18T01:29:13;97275.66;;;-4.87;100.00
42001;BME280;27689;48.390;10.856;2022-12-18T01:31:57;97269.66;;;-4.85;100.00
42001;BME280;27689;48.390;10.856;2022-12-18T01:34:41;97284.97;;;-4.82;100.00
42001;BME280;27689;48.390;10.856;2022-12-18T01:37:25;97292.78;;;-4.91;100.00
42001;BME280;27689;48.390;10.856;2022-12-18T01:40:09;97293.72;;;-4.97;100.00
42001;BME280;27689;48.390;10.856;2022-12-18T01:42:53;97295.47;;;-5.00;100.00
42001;BME280;27689;48.390;10.856;2022-12-18T01:45:37;97298.88;;;-5.00;100.00
42001;BME280;27689;48.390;10.856;2022-12-18T01:48:21;97295.63;;;-5.09;100.00
42001;BME280;27689;48.390;10.856;2022-12-18T01:51:07;97298.41;;;-5.26;100.00
42001;BME280;27689;48.390;10.856;2022-12-18T01:53:52;97291.69;;;-5.33;100.00
42001;BME280;27689;48.390;10.856;2022-12-18T01:56:36;97286.78;;;-5.45;100.00
42001;BME280;27689;48.390;10.856;2022-12-18T01:59:20;97293.78;;;-5.59;100.00
42001;BME280;27689;48.390;10.856;2022-12-18T02:02:06;97292.94;;;-5.61;100.00
42001;BME280;27689;48.390;10.856;2022-12-18T02:04:49;97282.03;;;-5.71;100.00
42001;BME280;27689;48.390;10.856;2022-12-18T02:10:46;97295.69;;;-5.77;100.00
42001;BME280;27689;48.390;10.856;2022-12-18T02:16:45;97293.94;;;-5.70;100.00
42001;BME280;27689;48.390;10.856;2022-12-18T02:23:08;97284.09;;;-5.97;100.00
42001;BME280;27689;48.390;10.856;2022-12-18T02:26:06;97285.03;;;-6.05;100.00
42001;BME280;27689;48.390;10.856;2022-12-18T02:28:56;97294.34;;;-6.00;100.00
42001;BME280;27689;48.390;10.856;2022-12-18T02:31:47;97292.59;;;-5.95;100.00
42001;BME280;27689;48.390;10.856;2022-12-18T02:34:37;97301.94;;;-5.94;100.00
42001;BME280;27689;48.390;10.856;2022-12-18T02:37:22;97299.41;;;-5.97;100.00
42001;BME280;27689;48.390;10.856;2022-12-18T02:40:09;97300.19;;;-5.92;100.00
42001;BME280;27689;48.390;10.856;2022-12-18T02:42:55;97304.31;;;-5.85;100.00
42001;BME280;27689;48.390;10.856;2022-12-18T02:45:52;97300.16;;;-5.89;100.00
42001;BME280;27689;48.390;10.856;2022-12-18T02:48:38;97300.88;;;-5.80;100.00
42001;BME280;27689;48.390;10.856;2022-12-18T02:51:32;97300.91;;;-5.83;100.00
42001;BME280;27689;48.390;10.856;2022-12-18T02:55:40;97301.72;;;-5.79;100.00
42001;BME280;27689;48.390;10.856;2022-12-18T02:58:23;97299.97;;;-5.77;100.00
42001;BME280;27689;48.390;10.856;2022-12-18T03:01:26;97298.13;;;-5.66;100.00
42001;BME280;27689;48.390;10.856;2022-12-18T03:04:26;97291.25;;;-5.61;100.00
42001;BME280;27689;48.390;10.856;2022-12-18T03:07:18;97291.53;;;-5.81;100.00
42001;BME280;27689;48.390;10.856;2022-12-18T03:10:06;97294.00;;;-5.76;100.00
42001;BME280;27689;48.390;10.856;2022-12-18T03:12:54;97284.56;;;-5.70;100.00
42001;BME280;27689;48.390;10.856;2022-12-18T03:15:47;97293.06;;;-5.68;100.00
42001;BME280;27689;48.390;10.856;2022-12-18T03:21:25;97301.59;;;-5.70;100.00
42001;BME280;27689;48.390;10.856;2022-12-18T03:24:11;97302.41;;;-5.68;100.00
42001;BME280;27689;48.390;10.856;2022-12-18T03:27:00;97326.97;;;-5.61;100.00
42001;BME280;27689;48.390;10.856;2022-12-18T03:29:49;97311.66;;;-5.61;100.00
42001;BME280;27689;48.390;10.856;2022-12-18T03:32:52;97300.53;;;-5.55;100.00
42001;BME280;27689;48.390;10.856;2022-12-18T03:35:41;97304.94;;;-5.66;100.00
42001;BME280;27689;48.390;10.856;2022-12-18T03:38:26;97309.91;;;-5.56;100.00
42001;BME280;27689;48.390;10.856;2022-12-18T03:44:21;97294.56;;;-5.54;100.00
42001;BME280;27689;48.390;10.856;2022-12-18T03:47:56;97321.09;;;-5.64;100.00
42001;BME280;27689;48.390;10.856;2022-12-18T03:50:48;97333.88;;;-5.68;100.00
42001;BME280;27689;48.390;10.856;2022-12-18T03:56:38;97323.50;;;-5.54;100.00
42001;BME280;27689;48.390;10.856;2022-12-18T03:59:25;97304.00;;;-5.61;100.00
42001;BME280;27689;48.390;10.856;2022-12-18T04:02:10;97305.88;;;-5.72;100.00
42001;BME280;27689;48.390;10.856;2022-12-18T04:04:58;97304.88;;;-5.63;100.00
42001;BME280;27689;48.390;10.856;2022-12-18T04:07:45;97315.09;;;-5.63;100.00
42001;BME280;27689;48.390;10.856;2022-12-18T04:10:29;97321.84;;;-5.59;100.00
42001;BME280;27689;48.390;10.856;2022-12-18T04:13:24;97323.53;;;-5.58;100.00
42001;BME280;27689;48.390;10.856;2022-12-18T04:16:10;97310.00;;;-5.63;100.00
42001;BME280;27689;48.390;10.856;2022-12-18T04:18:54;97311.66;;;-5.59;100.00
42001;BME280;27689;48.390;10.856;2022-12-18T04:21:38;97309.06;;;-5.58;100.00
42001;BME280;27689;48.390;10.856;2022-12-18T04:24:22;97316.78;;;-5.62;100.00
42001;BME280;27689;48.390;10.856;2022-12-18T04:27:06;97316.91;;;-5.70;100.00
42001;BME280;27689;48.390;10.856;2022-12-18T04:29:51;97311.75;;;-5.67;100.00
42001;BME280;27689;48.390;10.856;2022-12-18T04:32:35;97314.16;;;-5.55;100.00
42001;BME280;27689;48.390;10.856;2022-12-18T04:35:19;97319.44;;;-5.70;100.00
42001;BME280;27689;48.390;10.856;2022-12-18T04:38:03;97333.13;;;-5.77;100.00
42001;BME280;27689;48.390;10.856;2022-12-18T04:40:47;97338.19;;;-5.71;100.00
42001;BME280;27689;48.390;10.856;2022-12-18T04:43:31;97343.22;;;-5.65;100.00
42001;BME280;27689;48.390;10.856;2022-12-18T04:46:16;97338.88;;;-5.60;100.00
42001;BME280;27689;48.390;10.856;2022-12-18T04:49:00;97350.91;;;-5.68;100.00
42001;BME280;27689;48.390;10.856;2022-12-18T04:51:44;97362.69;;;-5.59;100.00
42001;BME280;27689;48.390;10.856;2022-12-18T04:54:28;97354.22;;;-5.63;100.00
42001;BME280;27689;48.390;10.856;2022-12-18T04:57:12;97349.91;;;-5.56;100.00
42001;BME280;27689;48.390;10.856;2022-12-18T04:59:56;97347.31;;;-5.52;100.00
42001;BME280;27689;48.390;10.856;2022-12-18T05:02:40;97348.13;;;-5.50;100.00
42001;BME280;27689;48.390;10.856;2022-12-18T05:05:23;97343.13;;;-5.60;100.00
42001;BME280;27689;48.390;10.856;2022-12-18T05:08:07;97348.19;;;-5.54;100.00
42001;BME280;27689;48.390;10.856;2022-12-18T05:11:03;97356.63;;;-5.49;100.00
42001;BME280;27689;48.390;10.856;2022-12-18T05:13:47;97356.63;;;-5.49;100.00
42001;BME280;27689;48.390;10.856;2022-12-18T05:16:32;97354.88;;;-5.46;100.00
42001;BME280;27689;48.390;10.856;2022-12-18T05:19:16;97348.19;;;-5.54;100.00
42001;BME280;27689;48.390;10.856;2022-12-18T05:22:00;97351.72;;;-5.64;100.00
42001;BME280;27689;48.390;10.856;2022-12-18T05:24:45;97355.88;;;-5.57;100.00
42001;BME280;27689;48.390;10.856;2022-12-18T05:27:29;97361.00;;;-5.60;100.00
42001;BME280;27689;48.390;10.856;2022-12-18T05:30:13;97367.16;;;-5.77;100.00
42001;BME280;27689;48.390;10.856;2022-12-18T05:32:57;97370.53;;;-5.73;100.00
42001;BME280;27689;48.390;10.856;2022-12-18T05:35:41;97367.09;;;-5.72;100.00
42001;BME280;27689;48.390;10.856;2022-12-18T05:38:26;97363.69;;;-5.70;100.00
42001;BME280;27689;48.390;10.856;2022-12-18T05:41:10;97354.28;;;-5.64;100.00
42001;BME280;27689;48.390;10.856;2022-12-18T05:43:54;97352.50;;;-5.61;100.00
42001;BME280;27689;48.390;10.856;2022-12-18T05:46:38;97353.47;;;-5.68;100.00
42001;BME280;27689;48.390;10.856;2022-12-18T05:49:22;97362.78;;;-5.65;100.00
42001;BME280;27689;48.390;10.856;2022-12-18T05:52:06;97355.13;;;-5.64;100.00
42001;BME280;27689;48.390;10.856;2022-12-18T05:54:50;97355.03;;;-5.58;100.00
42001;BME280;27689;48.390;10.856;2022-12-18T05:57:34;97366.13;;;-5.62;100.00
42001;BME280;27689;48.390;10.856;2022-12-18T06:00:18;97361.19;;;-5.76;100.00
42001;BME280;27689;48.390;10.856;2022-12-18T06:03:01;97379.91;;;-5.77;100.00
42001;BME280;27689;48.390;10.856;2022-12-18T06:05:45;97370.50;;;-5.70;100.00
42001;BME280;27689;48.390;10.856;2022-12-18T06:08:29;97372.28;;;-5.78;100.00
42001;BME280;27689;48.390;10.856;2022-12-18T06:11:17;97383.28;;;-5.75;100.00
42001;BME280;27689;48.390;10.856;2022-12-18T06:14:03;97386.84;;;-5.88;100.00
42001;BME280;27689;48.390;10.856;2022-12-18T06:16:47;97387.63;;;-5.81;100.00
42001;BME280;27689;48.390;10.856;2022-12-18T06:19:31;97375.66;;;-5.78;100.00
42001;BME280;27689;48.390;10.856;2022-12-18T06:22:15;97375.66;;;-5.76;100.00
42001;BME280;27689;48.390;10.856;2022-12-18T06:24:59;97381.59;;;-5.76;100.00
42001;BME280;27689;48.390;10.856;2022-12-18T06:27:43;97386.00;;;-5.87;100.00
42001;BME280;27689;48.390;10.856;2022-12-18T06:30:27;97392.88;;;-5.92;100.00
42001;BME280;27689;48.390;10.856;2022-12-18T06:33:10;97402.09;;;-5.80;100.00
42001;BME280;27689;48.390;10.856;2022-12-18T06:36:00;97404.53;;;-5.71;100.00
42001;BME280;27689;48.390;10.856;2022-12-18T06:38:44;97401.06;;;-5.65;100.00
42001;BME280;27689;48.390;10.856;2022-12-18T06:41:28;97398.47;;;-5.62;100.00
42001;BME280;27689;48.390;10.856;2022-12-18T06:44:12;97399.22;;;-5.54;100.00
42001;BME280;27689;48.390;10.856;2022-12-18T06:46:56;97390.72;;;-5.55;100.00
42001;BME280;27689;48.390;10.856;2022-12-18T06:49:40;97384.00;;;-5.62;100.00
42001;BME280;27689;48.390;10.856;2022-12-18T06:52:24;97391.56;;;-5.53;100.00
42001;BME280;27689;48.390;10.856;2022-12-18T06:55:08;97399.97;;;-5.48;100.00
42001;BME280;27689;48.390;10.856;2022-12-18T06:57:52;97401.69;;;-5.48;100.00
42001;BME280;27689;48.390;10.856;2022-12-18T07:00:36;97411.03;;;-5.47;100.00
42001;BME280;27689;48.390;10.856;2022-12-18T07:03:20;97409.31;;;-5.44;100.00
42001;BME280;27689;48.390;10.856;2022-12-18T07:06:04;97410.97;;;-5.38;100.00
42001;BME280;27689;48.390;10.856;2022-12-18T07:08:51;97416.91;;;-5.38;100.00
42001;BME280;27689;48.390;10.856;2022-12-18T07:11:35;97421.91;;;-5.30;100.00
42001;BME280;27689;48.390;10.856;2022-12-18T07:14:19;97405.00;;;-5.40;100.00
42001;BME280;27689;48.390;10.856;2022-12-18T07:17:02;97409.22;;;-5.35;100.00
42001;BME280;27689;48.390;10.856;2022-12-18T07:19:47;97408.44;;;-5.41;100.00
42001;BME280;27689;48.390;10.856;2022-12-18T07:22:31;97418.59;;;-5.35;100.00
42001;BME280;27689;48.390;10.856;2022-12-18T07:25:15;97408.41;;;-5.40;100.00
42001;BME280;27689;48.390;10.856;2022-12-18T07:27:58;97416.88;;;-5.35;100.00
42001;BME280;27689;48.390;10.856;2022-12-18T07:30:43;97424.44;;;-5.28;100.00
42001;BME280;27689;48.390;10.856;2022-12-18T07:33:26;97427.09;;;-5.36;100.00
42001;BME280;27689;48.390;10.856;2022-12-18T07:36:11;97422.91;;;-5.42;100.00
42001;BME280;27689;48.390;10.856;2022-12-18T07:38:55;97431.31;;;-5.34;100.00
42001;BME280;27689;48.390;10.856;2022-12-18T07:41:40;97442.47;;;-5.41;100.00
42001;BME280;27689;48.390;10.856;2022-12-18T07:44:44;97439.91;;;-5.39;100.00
42001;BME280;27689;48.390;10.856;2022-12-18T07:47:33;97445.00;;;-5.38;100.00
42001;BME280;27689;48.390;10.856;2022-12-18T07:50:17;97446.75;;;-5.43;100.00
42001;BME280;27689;48.390;10.856;2022-12-18T07:53:01;97451.97;;;-5.52;100.00
42001;BME280;27689;48.390;10.856;2022-12-18T07:55:48;97458.75;;;-5.51;100.00
42001;BME280;27689;48.390;10.856;2022-12-18T07:58:34;97455.31;;;-5.48;100.00
42001;BME280;27689;48.390;10.856;2022-12-18T08:01:18;97457.84;;;-5.47;100.00
42001;BME280;27689;48.390;10.856;2022-12-18T08:04:02;97457.81;;;-5.42;100.00
42001;BME280;27689;48.390;10.856;2022-12-18T08:06:46;97465.41;;;-5.35;100.00
42001;BME280;27689;48.390;10.856;2022-12-18T08:09:30;97468.66;;;-5.23;100.00
42001;BME280;27689;48.390;10.856;2022-12-18T08:12:14;97476.31;;;-5.22;100.00
42001;BME280;27689;48.390;10.856;2022-12-18T08:14:58;97478.19;;;-5.36;100.00
42001;BME280;27689;48.390;10.856;2022-12-18T08:17:42;97480.72;;;-5.36;100.00
42001;BME280;27689;48.390;10.856;2022-12-18T08:20:26;97472.25;;;-5.38;100.00
42001;BME280;27689;48.390;10.856;2022-12-18T08:23:10;97466.13;;;-5.25;100.00
42001;BME280;27689;48.390;10.856;2022-12-18T08:25:54;97470.34;;;-5.21;100.00
42001;BME280;27689;48.390;10.856;2022-12-18T08:28:38;97472.09;;;-5.26;100.00
42001;BME280;27689;48.390;10.856;2022-12-18T08:31:23;97460.91;;;-5.19;100.00
42001;BME280;27689;48.390;10.856;2022-12-18T08:34:08;97467.84;;;-5.28;100.00
42001;BME280;27689;48.390;10.856;2022-12-18T08:36:52;97477.06;;;-5.15;100.00
42001;BME280;27689;48.390;10.856;2022-12-18T08:39:36;97462.44;;;-5.04;100.00
42001;BME280;27689;48.390;10.856;2022-12-18T08:42:20;97459.00;;;-5.02;100.00
42001;BME280;27689;48.390;10.856;2022-12-18T08:45:23;97467.44;;;-4.95;100.00
42001;BME280;27689;48.390;10.856;2022-12-18T08:48:08;97459.09;;;-5.08;100.00
42001;BME280;27689;48.390;10.856;2022-12-18T08:50:56;97453.16;;;-5.10;100.00
42001;BME280;27689;48.390;10.856;2022-12-18T08:53:40;97452.34;;;-5.13;100.00
42001;BME280;27689;48.390;10.856;2022-12-18T08:56:24;97448.06;;;-5.11;100.00
42001;BME280;27689;48.390;10.856;2022-12-18T08:59:08;97455.63;;;-5.04;100.00
42001;BME280;27689;48.390;10.856;2022-12-18T09:01:53;97459.97;;;-5.09;100.00
42001;BME280;27689;48.390;10.856;2022-12-18T09:04:37;97462.69;;;-5.21;100.00
42001;BME280;27689;48.390;10.856;2022-12-18T09:07:23;97466.03;;;-5.19;100.00
42001;BME280;27689;48.390;10.856;2022-12-18T09:10:07;97466.19;;;-5.31;100.00
42001;BME280;27689;48.390;10.856;2022-12-18T09:12:51;97470.31;;;-5.19;100.00
42001;BME280;27689;48.390;10.856;2022-12-18T09:15:40;97466.09;;;-5.22;100.00
42001;BME280;27689;48.390;10.856;2022-12-18T09:18:25;97469.56;;;-5.30;100.00
42001;BME280;27689;48.390;10.856;2022-12-18T09:21:11;97462.88;;;-5.38;100.00
42001;BME280;27689;48.390;10.856;2022-12-18T09:23:56;97469.66;;;-5.37;100.00
42001;BME280;27689;48.390;10.856;2022-12-18T09:26:40;97473.84;;;-5.33;100.00
42001;BME280;27689;48.390;10.856;2022-12-18T09:29:24;97473.75;;;-5.23;100.00
42001;BME280;27689;48.390;10.856;2022-12-18T09:32:08;97470.22;;;-5.12;100.00
42001;BME280;27689;48.390;10.856;2022-12-18T09:34:52;97465.72;;;-4.93;100.00
42001;BME280;27689;48.390;10.856;2022-12-18T09:37:36;97458.81;;;-4.88;100.00
42001;BME280;27689;48.390;10.856;2022-12-18T09:40:23;97452.66;;;-4.73;100.00
42001;BME280;27689;48.390;10.856;2022-12-18T09:43:15;97447.69;;;-4.84;100.00
42001;BME280;27689;48.390;10.856;2022-12-18T09:46:07;97457.00;;;-4.78;100.00
42001;BME280;27689;48.390;10.856;2022-12-18T09:48:52;97453.44;;;-4.68;100.00
42001;BME280;27689;48.390;10.856;2022-12-18T09:55:01;97453.44;;;-4.68;100.00
42001;BME280;27689;48.390;10.856;2022-12-18T09:58:02;97455.81;;;-4.54;100.00
42001;BME280;27689;48.390;10.856;2022-12-18T10:00:51;97448.16;;;-4.57;100.00
42001;BME280;27689;48.390;10.856;2022-12-18T10:03:35;97438.00;;;-4.60;100.00
42001;BME280;27689;48.390;10.856;2022-12-18T10:06:33;97436.41;;;-4.69;100.00
42001;BME280;27689;48.390;10.856;2022-12-18T10:15:23;97424.19;;;-5.07;100.00
42001;BME280;27689;48.390;10.856;2022-12-18T10:21:12;97432.00;;;-5.19;100.00
42001;BME280;27689;48.390;10.856;2022-12-18T10:24:03;97428.53;;;-5.15;100.00
42001;BME280;27689;48.390;10.856;2022-12-18T10:27:13;97426.94;;;-5.24;100.00
42001;BME280;27689;48.390;10.856;2022-12-18T10:30:00;97437.03;;;-5.15;100.00
42001;BME280;27689;48.390;10.856;2022-12-18T10:32:44;97436.09;;;-5.06;100.00
42001;BME280;27689;48.390;10.856;2022-12-18T10:35:28;97436.00;;;-5.00;100.00
42001;BME280;27689;48.390;10.856;2022-12-18T10:40:58;97451.06;;;-4.79;100.00
42001;BME280;27689;48.390;10.856;2022-12-18T10:43:42;97461.16;;;-4.73;100.00
42001;BME280;27689;48.390;10.856;2022-12-18T10:46:27;97457.66;;;-4.66;100.00
42001;BME280;27689;48.390;10.856;2022-12-18T10:49:21;97453.34;;;-4.60;100.00
42001;BME280;27689;48.390;10.856;2022-12-18T10:52:19;97448.91;;;-4.48;100.00
42001;BME280;27689;48.390;10.856;2022-12-18T10:55:05;97444.44;;;-4.37;100.00
42001;BME280;27689;48.390;10.856;2022-12-18T10:57:49;97448.63;;;-4.31;100.00
42001;BME280;27689;48.390;10.856;2022-12-18T11:00:33;97436.84;;;-4.41;100.00
42001;BME280;27689;48.390;10.856;2022-12-18T11:03:42;97449.31;;;-4.20;100.00
42001;BME280;27689;48.390;10.856;2022-12-18T11:06:27;97444.91;;;-4.12;100.00
42001;BME280;27689;48.390;10.856;2022-12-18T11:09:21;97446.34;;;-4.48;100.00
42001;BME280;27689;48.390;10.856;2022-12-18T11:12:15;97438.41;;;-4.31;100.00
42001;BME280;27689;48.390;10.856;2022-12-18T11:15:01;97435.72;;;-4.25;100.00
42001;BME280;27689;48.390;10.856;2022-12-18T11:17:47;97434.00;;;-4.23;100.00
42001;BME280;27689;48.390;10.856;2022-12-18T11:20:34;97442.00;;;-4.44;100.00
42001;BME280;27689;48.390;10.856;2022-12-18T11:23:20;97435.13;;;-4.41;100.00
42001;BME280;27689;48.390;10.856;2022-12-18T11:26:06;97440.19;;;-4.36;100.00
42001;BME280;27689;48.390;10.856;2022-12-18T11:29:07;97436.00;;;-4.42;100.00
42001;BME280;27689;48.390;10.856;2022-12-18T11:32:09;97424.09;;;-4.44;100.00
42001;BME280;27689;48.390;10.856;2022-12-18T11:35:03;97421.53;;;-4.44;100.00
42001;BME280;27689;48.390;10.856;2022-12-18T11:38:50;97426.13;;;-4.65;100.00
42001;BME280;27689;48.390;10.856;2022-12-18T11:44:07;97421.72;;;-4.56;100.00
42001;BME280;27689;48.390;10.856;2022-12-18T11:47:03;97419.03;;;-4.46;100.00
42001;BME280;27689;48.390;10.856;2022-12-18T11:49:51;97415.16;;;-4.73;100.00
42001;BME280;27689;48.390;10.856;2022-12-18T11:52:39;97415.25;;;-4.79;100.00
42001;BME280;27689;48.390;10.856;2022-12-18T11:55:38;97411.13;;;-4.89;100.00
42001;BME280;27689;48.390;10.856;2022-12-18T11:58:26;97413.66;;;-4.86;100.00
42001;BME280;27689;48.390;10.856;2022-12-18T12:01:43;97403.56;;;-4.93;100.00
42001;BME280;27689;48.390;10.856;2022-12-18T12:07:37;97399.69;;;-4.62;100.00
42001;BME280;27689;48.390;10.856;2022-12-18T12:11:07;97388.50;;;-4.58;100.00
42001;BME280;27689;48.390;10.856;2022-12-18T12:14:12;97397.19;;;-4.67;100.00
42001;BME280;27689;48.390;10.856;2022-12-18T12:26:59;97411.53;;;-4.59;100.00
42001;BME280;27689;48.390;10.856;2022-12-18T12:39:01;97395.09;;;-4.43;100.00
42001;BME280;27689;48.390;10.856;2022-12-18T12:41:49;97385.72;;;-4.43;100.00
42001;BME280;27689;48.390;10.856;2022-12-18T12:44:55;97379.56;;;-4.31;100.00
42001;BME280;27689;48.390;10.856;2022-12-18T12:47:42;97375.31;;;-4.32;100.00
42001;BME280;27689;48.390;10.856;2022-12-18T12:50:30;97363.25;;;-4.24;100.00
42001;BME280;27689;48.390;10.856;2022-12-18T12:53:23;97366.44;;;-4.13;100.00
42001;BME280;27689;48.390;10.856;2022-12-18T12:56:12;97375.13;;;-4.20;100.00
42001;BME280;27689;48.390;10.856;2022-12-18T12:59:15;97363.25;;;-4.24;100.00
42001;BME280;27689;48.390;10.856;2022-12-18T13:02:18;97365.00;;;-4.28;100.00
42001;BME280;27689;48.390;10.856;2022-12-18T13:05:39;97370.34;;;-4.41;100.00
42001;BME280;27689;48.390;10.856;2022-12-18T13:08:29;97371.72;;;-4.22;100.00
42001;BME280;27689;48.390;10.856;2022-12-18T13:11:43;97380.56;;;-4.41;100.00
42001;BME280;27689;48.390;10.856;2022-12-18T13:21:01;97382.78;;;-4.72;100.00
42001;BME280;27689;48.390;10.856;2022-12-18T13:23:46;97379.38;;;-4.73;100.00
42001;BME280;27689;48.390;10.856;2022-12-18T13:26:31;97375.81;;;-4.63;100.00
42001;BME280;27689;48.390;10.856;2022-12-18T13:29:42;97385.22;;;-4.63;100.00
42001;BME280;27689;48.390;10.856;2022-12-18T13:32:27;97384.25;;;-4.59;100.00
42001;BME280;27689;48.390;10.856;2022-12-18T13:38:34;97385.59;;;-4.35;100.00
42001;BME280;27689;48.390;10.856;2022-12-18T13:41:26;97386.31;;;-4.27;100.00
42001;BME280;27689;48.390;10.856;2022-12-18T13:44:31;97387.88;;;-4.18;100.00
42001;BME280;27689;48.390;10.856;2022-12-18T13:47:33;97390.56;;;-4.26;100.00
42001;BME280;27689;48.390;10.856;2022-12-18T13:50:24;97383.59;;;-4.16;100.00
42001;BME280;27689;48.390;10.856;2022-12-18T13:53:21;97379.31;;;-4.16;100.00
42001;BME280;27689;48.390;10.856;2022-12-18T13:56:07;97388.59;;;-4.12;100.00
42001;BME280;27689;48.390;10.856;2022-12-18T14:02:45;97373.28;;;-4.13;100.00
42001;BME280;27689;48.390;10.856;2022-12-18T14:05:03;97372.16;;;-4.46;100.00
42001;BME280;27689;48.390;10.856;2022-12-18T14:07:47;97380.00;;;-4.58;100.00
42001;BME280;27689;48.390;10.856;2022-12-18T14:10:32;97379.22;;;-4.60;100.00
42001;BME280;27689;48.390;10.856;2022-12-18T14:13:37;97380.13;;;-4.65;100.00
42001;BME280;27689;48.390;10.856;2022-12-18T14:16:24;97380.97;;;-4.64;100.00
42001;BME280;27689;48.390;10.856;2022-12-18T14:19:18;97380.09;;;-4.63;100.00
42001;BME280;27689;48.390;10.856;2022-12-18T14:22:02;97380.38;;;-4.83;100.00
42001;BME280;27689;48.390;10.856;2022-12-18T14:24:47;97390.69;;;-4.89;100.00
42001;BME280;27689;48.390;10.856;2022-12-18T14:30:52;97383.78;;;-4.82;100.00
42001;BME280;27689;48.390;10.856;2022-12-18T14:33:37;97384.69;;;-4.85;100.00
42001;BME280;27689;48.390;10.856;2022-12-18T14:36:24;97389.13;;;-4.99;100.00
42001;BME280;27689;48.390;10.856;2022-12-18T14:39:16;97389.19;;;-5.02;100.00
42001;BME280;27689;48.390;10.856;2022-12-18T14:42:00;97389.25;;;-5.07;100.00
42001;BME280;27689;48.390;10.856;2022-12-18T14:44:44;97401.19;;;-5.07;100.00
42001;BME280;27689;48.390;10.856;2022-12-18T14:47:28;97389.13;;;-4.98;100.00
42001;BME280;27689;48.390;10.856;2022-12-18T14:50:13;97393.28;;;-4.90;100.00
42001;BME280;27689;48.390;10.856;2022-12-18T14:52:58;97393.38;;;-4.98;100.00
42001;BME280;27689;48.390;10.856;2022-12-18T14:55:48;97392.53;;;-4.99;100.00
42001;BME280;27689;48.390;10.856;2022-12-18T14:58:34;97396.72;;;-4.93;100.00
42001;BME280;27689;48.390;10.856;2022-12-18T15:01:18;97405.16;;;-4.88;100.00
42001;BME280;27689;48.390;10.856;2022-12-18T15:04:05;97403.41;;;-4.84;100.00
42001;BME280;27689;48.390;10.856;2022-12-18T15:07:16;97395.06;;;-4.97;100.00
42001;BME280;27689;48.390;10.856;2022-12-18T15:18:35;97405.41;;;-5.05;100.00
42001;BME280;27689;48.390;10.856;2022-12-18T15:21:24;97386.75;;;-5.11;100.00
42001;BME280;27689;48.390;10.856;2022-12-18T15:24:17;97391.03;;;-5.12;100.00
42001;BME280;27689;48.390;10.856;2022-12-18T15:27:01;97394.50;;;-5.17;100.00
42001;BME280;27689;48.390;10.856;2022-12-18T15:30:01;97395.47;;;-5.26;100.00
42001;BME280;27689;48.390;10.856;2022-12-18T15:32:46;97393.75;;;-5.25;100.00
42001;BME280;27689;48.390;10.856;2022-12-18T15:35:31;97384.53;;;-5.36;100.00
42001;BME280;27689;48.390;10.856;2022-12-18T15:38:15;97382.06;;;-5.42;100.00
42001;BME280;27689;48.390;10.856;2022-12-18T15:40:59;97386.34;;;-5.44;100.00
42001;BME280;27689;48.390;10.856;2022-12-18T15:43:44;97388.06;;;-5.46;100.00
42001;BME280;27689;48.390;10.856;2022-12-18T15:46:29;97392.28;;;-5.45;100.00
42001;BME280;27689;48.390;10.856;2022-12-18T15:49:14;97383.81;;;-5.47;100.00
42001;BME280;27689;48.390;10.856;2022-12-18T15:51:59;97385.59;;;-5.52;100.00